Flight Track Log - Related Links

Times and Time Zones

All times are in EDT time to prevent confusion due to time zone crossing. See the GJS3710 flight status page for this flight to view local times or setup timezone preferences in your user account.


Time Position Orientation Groundspeed Altitude Reporting Facility
EDT Latitude Longitude Course Direction KTS MPH feet Rate Location/Type
Tue 09:09:00 PM 41.9167 -87.8833 86° East 192 221 2,900  Level Chicago TRACON
Tue 09:09:38 PM 41.8917 -87.8533 138° Southeast 229 264 3,900 1,980 Climbing Chicago Center
Tue 09:10:40 PM 41.8389 -87.7806 134° Southeast 256 295 6,200 2,274 Climbing Chicago Center
Tue 09:11:42 PM 41.8214 -87.6808 103° East 298 343 8,600 2,274 Climbing Chicago Center
Tue 09:12:00 PM 42.2300 -87.1600 66° East  Level FlightAware Approximate
Tue 09:12:44 PM 41.8825 -87.6044 43° Northeast 303 349 10,900  Level Chicago Center
Tue 09:13:00 PM 42.2667 -87.0035 90° East  Level FlightAware Approximate
Tue 09:13:47 PM 41.9497 -87.5142 45° Northeast 328 377 12,300  Level Chicago Center
Tue 09:14:00 PM 42.2742 -86.8447 86° East  Level FlightAware Approximate
Tue 09:14:49 PM 42.0356 -87.3947 46° Northeast 366 421 15,700  Level Chicago Center
Tue 09:15:51 PM 42.0978 -87.2836 53° Northeast 375 432 17,300 1,694 Climbing Chicago Center
Tue 09:16:53 PM 42.1242 -87.1406 76° East 392 451 19,200 1,548 Climbing Chicago Center
Tue 09:17:55 PM 42.1531 -86.9892 76° East 408 470 20,500 1,258 Climbing Chicago Center
Tue 09:18:57 PM 42.1828 -86.8306 76° East 430 495 21,800 1,258 Climbing Chicago Center
Tue 09:19:59 PM 42.2128 -86.6583 77° East 448 516 23,100 1,258 Climbing Chicago Center
Tue 09:21:01 PM 42.2450 -86.4886 76° East 462 532 24,400 919 Climbing Chicago Center
Tue 09:22:03 PM 42.2831 -86.2783 76° East 476 548 25,000 677 Climbing Chicago Center
Tue 09:23:05 PM 42.3114 -86.1072 77° East 500 575 25,800 871 Climbing Chicago Center
Tue 09:24:07 PM 42.3125 -85.9158 89° East 513 590 26,800 1,056 Climbing Chicago Center
Tue 09:25:10 PM 42.3097 -85.6850 91° East 517 595 28,000 1,056 Climbing Chicago Center
Tue 09:26:12 PM 42.3075 -85.4867 91° East 529 609 29,000 968 Climbing Chicago Center
Tue 09:27:14 PM 42.3053 -85.2886 91° East 530 610 30,000 968 Climbing Chicago Center
Tue 09:28:16 PM 42.3019 -85.0931 91° East 527 606 31,000 968 Climbing Chicago Center
Tue 09:29:18 PM 42.2975 -84.8944 92° East 530 610 32,000 968 Climbing Chicago Center
Tue 09:30:20 PM 42.2925 -84.6964 92° East 529 609 33,000 1,065 Climbing Chicago Center
Tue 09:31:22 PM 42.2889 -84.4586 91° East 530 610 34,200 1,107 Climbing Chicago Center
Tue 09:32:03 PM 42.3056 -84.3231 81° East 524 603 34,900 1,010 Climbing Cleveland Center
Tue 09:33:03 PM 42.3325 -84.1308 79° East 524 603 35,900 1,000 Climbing Cleveland Center
Tue 09:34:03 PM 42.3528 -83.9408 82° East 519 597 36,900 550 Climbing Cleveland Center
Tue 09:35:03 PM 42.3708 -83.7450 83° East 519 597 37,000 50 Climbing Cleveland Center
Tue 09:36:03 PM 42.3842 -83.5575 84° East 534 615 37,000  Level Cleveland Center
Tue 09:37:03 PM 42.3997 -83.3528 84° East 548 631 37,000  Level Cleveland Center
Tue 09:38:03 PM 42.4172 -83.1397 84° East 556 640 37,000  Level Cleveland Center
Tue 09:39:03 PM 42.4319 -82.9350 84° East 556 640 37,000  Level Cleveland Center
Tue 09:40:03 PM 42.4486 -82.7303 84° East 551 634 37,000  Level Cleveland Center
Tue 09:41:03 PM 42.4625 -82.5253 85° East 551 634 37,000  Level Cleveland Center
Tue 09:42:03 PM 42.4764 -82.3200 85° East 551 634 37,000  Level Cleveland Center
Tue 09:43:03 PM 42.4917 -82.1150 84° East 551 634 37,000  Level Cleveland Center
Tue 09:44:03 PM 42.5047 -81.9069 85° East 551 634 37,000  Level Cleveland Center
Tue 09:45:03 PM 42.5217 -81.6819 84° East 556 640 37,000  Level Cleveland Center
Tue 09:46:03 PM 42.5339 -81.4764 85° East 549 632 37,000  Level Cleveland Center
Tue 09:47:03 PM 42.5478 -81.2681 85° East 549 632 37,000  Level Cleveland Center
Tue 09:48:03 PM 42.5569 -81.0850 86° East 558 642 37,000  Level Cleveland Center
Tue 09:49:03 PM 42.5683 -80.8764 86° East 550 633 37,000  Level Cleveland Center
Tue 09:50:03 PM 42.5811 -80.6706 85° East 550 633 37,000  Level Cleveland Center
Tue 09:51:03 PM 42.5914 -80.4619 86° East 555 639 37,000  Level Cleveland Center
Tue 09:52:04 PM 42.6036 -80.2561 85° East 555 639 37,000  Level Cleveland Center
Tue 09:53:03 PM 42.6133 -80.0500 86° East 550 633 37,000  Level Cleveland Center
Tue 09:54:03 PM 42.6244 -79.8242 86° East 550 633 37,000  Level Cleveland Center
Tue 09:55:03 PM 42.6356 -79.6181 86° East 550 633 37,000  Level Cleveland Center
Tue 09:56:03 PM 42.6439 -79.4089 87° East 550 633 37,000  Level Cleveland Center
Tue 09:57:03 PM 42.6542 -79.2000 86° East 555 639 37,000 -50 Level Cleveland Center
Tue 09:58:03 PM 42.6597 -78.9964 88° East 555 639 36,900 -550 Descending Cleveland Center
Tue 09:59:03 PM 42.6694 -78.7900 86° East 555 639 35,900 -1,000 Descending Cleveland Center
Tue 10:00:03 PM 42.6764 -78.5867 87° East 550 633 34,900 -1,050 Descending Cleveland Center
Tue 10:01:03 PM 42.7233 -78.4097 70° East 516 594 33,800 -1,000 Descending Cleveland Center
Tue 10:02:03 PM 42.7761 -78.2383 67° East 499 574 32,900 -1,000 Descending Cleveland Center
Tue 10:03:03 PM 42.8328 -78.0606 66° East 499 574 31,800 -1,000 Descending Cleveland Center
Tue 10:04:03 PM 42.8703 -77.8750 75° East 499 574 30,900 -1,000 Descending Cleveland Center
Tue 10:05:03 PM 42.8675 -77.6767 91° East 499 574 29,800 -942 Descending Cleveland Center
Tue 10:06:04 PM 42.8692 -77.4981 89° East 514 592 29,000 -286 Descending Cleveland Center
Tue 10:07:51 PM 42.8614 -77.2053 92° East 526 605 29,000  Level Boston Center
Tue 10:08:51 PM 42.8578 -76.9842 91° East 505 581 29,000  Level Boston Center
Tue 10:09:51 PM 42.8547 -76.7967 91° East 490 564 29,000  Level Boston Center
Tue 10:10:49 PM 42.8511 -76.6153 91° East 490 564 29,000  Level Boston Center
Tue 10:11:49 PM 42.8450 -76.4333 93° East 480 552 29,000  Level Boston Center
Tue 10:12:50 PM 42.8411 -76.2492 92° East 480 552 29,000 -50 Level Boston Center
Tue 10:13:49 PM 42.8350 -76.0533 92° East 491 565 28,900 -252 Descending Boston Center
Tue 10:14:49 PM 42.8303 -75.8689 92° East 496 571 28,500 -1,438 Descending Boston Center
Tue 10:15:50 PM 42.8231 -75.6844 93° East 496 571 26,000 -2,459 Descending Boston Center
Tue 10:16:51 PM 42.8194 -75.5114 92° East 483 556 23,500 -2,500 Descending Boston Center
Tue 10:17:50 PM 42.8136 -75.3442 93° East 456 525 21,000 -2,500 Descending Boston Center
Tue 10:18:51 PM 42.8069 -75.1853 93° East 437 503 18,500 -2,370 Descending Boston Center
Tue 10:19:49 PM 42.8022 -75.0294 92° East 416 479 16,300 -2,196 Descending Boston Center
Tue 10:20:43 PM 42.7950 -74.8847 94° East 403 464 14,400 -1,918 Descending Boston Center
Tue 10:21:51 PM 42.7900 -74.7261 92° East 406 467 12,400 -1,476 Descending Boston Center
Tue 10:22:49 PM 42.7828 -74.5703 94° East 394 453 11,300 -777 Descending Boston Center
Tue 10:24:10 PM 42.7756 -74.3947 93° East 323 372 10,600 -650 Descending Boston Center
Tue 10:24:49 PM 42.7725 -74.3211 93° East 320 368 10,000 -1,260 Descending Boston Center
Tue 10:25:50 PM 42.7700 -74.2247 92° East 282 325 8,500 -1,820 Descending Boston Center
Tue 10:26:51 PM 42.7736 -74.1203 87° East 259 298 6,300 -1,916 Descending Boston Center
Tue 10:27:49 PM 42.8017 -74.0417 64° Northeast 253 291 4,700 -1,462 Descending Boston Center
Tue 10:28:50 PM 42.8364 -73.9550 61° Northeast 248 285 3,400 -984 Descending Boston Center
Tue 10:29:51 PM 42.8603 -73.8647 70° East 239 275 2,700 -893 Descending Boston Center
Tue 10:30:51 PM 42.8422 -73.8164 117° Southeast 158 182 1,600 -645 Descending Boston Center
Tue 10:31:52 PM 42.8111 -73.8128 175° South 106 122 1,400 -443 Descending Boston Center
Tue 10:32:53 PM 42.7756 -73.8064 172° South 126 145 700 -689 Descending Boston Center

Login

Don't have an account? Register now (free) for customized features, flight alerts, and more!